createdAt,value
2023-02-09T00:00:23.407Z,1.62
2023-02-09T00:01:23.484Z,1.56
2023-02-09T00:02:23.594Z,1.54
2023-02-09T00:03:23.677Z,1.50
2023-02-09T00:04:23.736Z,1.51
2023-02-09T00:05:23.828Z,1.39
2023-02-09T00:06:23.910Z,1.22
2023-02-09T00:07:23.994Z,1.17
2023-02-09T00:08:24.071Z,1.27
2023-02-09T00:09:24.162Z,1.17
2023-02-09T00:10:24.236Z,1.30
2023-02-09T00:11:24.337Z,1.28
2023-02-09T00:12:24.404Z,1.49
2023-02-09T00:13:24.496Z,1.07
2023-02-09T00:14:24.592Z,1.23
2023-02-09T00:15:24.665Z,1.20
2023-02-09T00:16:24.803Z,1.34
2023-02-09T00:17:24.823Z,1.21
2023-02-09T00:18:24.930Z,1.24
2023-02-09T00:19:25.009Z,1.24
2023-02-09T00:20:25.095Z,1.22
2023-02-09T00:21:25.187Z,1.15
2023-02-09T00:22:25.269Z,1.15
2023-02-09T00:23:25.347Z,1.13
2023-02-09T00:24:25.424Z,1.21
2023-02-09T00:25:25.520Z,1.21
2023-02-09T00:26:25.608Z,1.51
2023-02-09T00:27:25.693Z,1.58
2023-02-09T00:28:25.843Z,1.90
2023-02-09T00:29:25.848Z,1.59
2023-02-09T00:30:25.937Z,1.64
2023-02-09T00:31:26.083Z,1.78
2023-02-09T00:32:26.117Z,1.73
2023-02-09T00:33:26.191Z,2.06
2023-02-09T00:34:26.274Z,1.96
2023-02-09T00:35:26.351Z,1.99
2023-02-09T00:36:26.432Z,1.51
2023-02-09T00:37:26.534Z,1.45
2023-02-09T00:38:26.631Z,1.37
2023-02-09T00:39:26.696Z,1.17
2023-02-09T00:40:26.796Z,1.29
2023-02-09T00:41:26.871Z,1.35
2023-02-09T00:42:26.975Z,1.71
2023-02-09T00:43:27.046Z,1.63
2023-02-09T00:44:27.150Z,1.82
2023-02-09T00:45:27.225Z,1.48
2023-02-09T00:46:27.313Z,1.82
2023-02-09T00:47:27.400Z,1.77
2023-02-09T00:48:27.491Z,1.70
2023-02-09T00:49:27.583Z,1.63
2023-02-09T00:50:27.665Z,1.70
2023-02-09T00:51:27.759Z,1.60
2023-02-09T00:52:27.843Z,1.41
2023-02-09T00:53:27.919Z,1.26
2023-02-09T00:54:28.030Z,1.27
2023-02-09T00:55:28.100Z,1.29
2023-02-09T00:56:28.189Z,1.30
2023-02-09T00:57:28.285Z,1.31
2023-02-09T00:58:28.392Z,1.38
2023-02-09T00:59:28.460Z,1.49
2023-02-09T01:00:28.542Z,1.58
2023-02-09T01:01:28.667Z,1.70
2023-02-09T01:02:28.732Z,1.64
2023-02-09T01:03:28.791Z,1.53
2023-02-09T01:04:28.939Z,1.53
2023-02-09T01:05:28.973Z,1.54
2023-02-09T01:06:29.057Z,1.55
2023-02-09T01:07:29.158Z,1.80
2023-02-09T01:08:29.231Z,1.83
2023-02-09T01:09:29.319Z,1.96
2023-02-09T01:10:29.413Z,1.71
2023-02-09T01:11:29.495Z,1.44
2023-02-09T01:12:29.607Z,1.39
2023-02-09T01:13:29.680Z,1.56
2023-02-09T01:14:29.760Z,1.44
2023-02-09T01:15:29.867Z,1.90
2023-02-09T01:16:30.010Z,1.77
2023-02-09T01:17:30.050Z,1.92
2023-02-09T01:39:32.054Z,1.66
2023-02-09T01:40:32.141Z,1.52
2023-02-09T01:41:32.248Z,1.71
2023-02-09T01:42:32.332Z,1.60
2023-02-09T01:43:32.424Z,1.68
2023-02-09T01:44:32.522Z,1.54
2023-02-09T01:46:32.740Z,1.22
2023-02-09T01:47:32.823Z,1.19
2023-02-09T01:48:32.905Z,1.34
2023-02-09T01:49:33.000Z,1.55
2023-02-09T01:50:33.094Z,1.37
2023-02-09T01:51:33.201Z,1.75
2023-02-09T01:52:33.275Z,1.76
2023-02-09T01:53:33.383Z,1.49
2023-02-09T01:54:33.496Z,1.56
2023-02-09T01:55:33.567Z,1.71
2023-02-09T01:56:33.664Z,1.53
2023-02-09T01:57:33.766Z,1.54
2023-02-09T01:58:33.876Z,1.70
2023-02-09T01:59:33.977Z,1.58
2023-02-09T02:00:34.046Z,1.56
2023-02-09T02:01:34.190Z,1.58
2023-02-09T02:02:34.266Z,1.42
2023-02-09T02:03:34.338Z,1.28
2023-02-09T02:04:34.432Z,1.40
2023-02-09T02:05:34.539Z,1.18
2023-02-09T02:06:34.651Z,1.30
2023-02-09T02:07:34.742Z,1.64
2023-02-09T02:08:34.843Z,1.57
2023-02-09T02:09:34.941Z,1.61
2023-02-09T02:10:35.049Z,1.62
2023-02-09T02:11:35.147Z,1.62
2023-02-09T02:12:35.252Z,1.62
2023-02-09T02:13:35.352Z,1.49
2023-02-09T02:14:35.455Z,1.52
2023-02-09T02:15:35.594Z,1.45
2023-02-09T02:16:35.651Z,1.55
2023-02-09T02:17:35.754Z,1.50
2023-02-09T02:18:35.844Z,1.63
2023-02-09T02:19:35.959Z,1.76
2023-02-09T02:20:36.049Z,1.83
2023-02-09T02:21:36.147Z,1.85
2023-02-09T02:22:36.237Z,1.56
2023-02-09T02:23:36.356Z,2.11
2023-02-09T02:24:36.429Z,1.72
2023-02-09T02:25:36.537Z,1.62
2023-02-09T02:26:36.636Z,1.52
2023-02-09T02:27:36.756Z,1.75
2023-02-09T02:28:36.883Z,2.06
2023-02-09T02:29:36.958Z,2.04
2023-02-09T02:30:37.110Z,1.66
2023-02-09T02:31:37.199Z,1.71
2023-02-09T02:32:37.272Z,1.44
2023-02-09T02:33:37.374Z,1.36
2023-02-09T02:34:37.462Z,1.91
2023-02-09T02:35:37.569Z,1.61
2023-02-09T02:36:37.697Z,1.46
2023-02-09T02:37:37.774Z,1.40
2023-02-09T02:38:37.882Z,1.30
2023-02-09T02:39:37.985Z,1.31
2023-02-09T02:40:38.088Z,1.19
2023-02-09T02:41:38.189Z,1.24
2023-02-09T02:42:38.306Z,1.31
2023-02-09T02:43:38.432Z,1.18
2023-02-09T02:44:38.479Z,1.61
2023-02-09T02:45:38.602Z,1.44
2023-02-09T02:46:38.769Z,1.68
2023-02-09T02:47:38.791Z,1.49
2023-02-09T02:48:38.913Z,1.49
2023-02-09T02:49:39.007Z,1.50
2023-02-09T02:51:39.221Z,1.49
2023-02-09T02:52:39.319Z,1.44
2023-02-09T03:37:43.985Z,1.61
2023-02-09T03:38:44.090Z,1.77
2023-02-09T03:39:44.190Z,1.82
2023-02-09T03:40:44.516Z,1.87
2023-02-09T03:41:44.390Z,2.19
2023-02-09T03:42:44.475Z,1.83
2023-02-09T03:43:44.574Z,1.88
2023-02-09T03:44:44.680Z,1.70
2023-02-09T03:45:44.785Z,1.87
2023-02-09T03:46:44.977Z,1.91
2023-02-09T03:47:44.985Z,1.94
2023-02-09T03:48:45.085Z,1.84
2023-02-09T03:49:45.196Z,1.82
2023-02-09T03:50:45.578Z,1.72
2023-02-09T03:51:45.395Z,1.83
2023-02-09T03:52:45.509Z,2.14
2023-02-09T03:53:45.602Z,2.22
2023-02-09T05:12:53.922Z,2.55
2023-02-09T05:13:54.034Z,3.33
2023-02-09T05:14:54.151Z,3.18
2023-02-09T05:15:54.255Z,2.37
2023-02-09T05:16:54.416Z,2.31
2023-02-09T05:17:54.462Z,2.85
2023-02-09T05:18:54.595Z,2.59
2023-02-09T05:19:54.687Z,2.68
2023-02-09T05:20:54.790Z,2.47
2023-02-09T05:21:54.882Z,2.30
2023-02-09T05:22:54.989Z,2.78
2023-02-09T05:23:55.085Z,2.84
2023-02-09T05:24:55.199Z,2.58
2023-02-09T05:25:55.299Z,1.92
2023-02-09T05:26:55.398Z,2.05
2023-02-09T05:27:55.604Z,2.03
2023-02-09T05:28:55.608Z,2.61
2023-02-09T05:29:55.706Z,2.31
2023-02-09T05:30:55.862Z,2.36
2023-02-09T05:31:55.967Z,2.23
2023-02-09T05:32:56.043Z,2.66
2023-02-09T05:33:56.162Z,3.03
2023-02-09T05:34:56.269Z,3.02
2023-02-09T05:35:56.392Z,2.77
2023-02-09T05:36:56.483Z,2.45
2023-02-09T05:37:56.581Z,2.63
2023-02-09T05:38:56.714Z,2.85
2023-02-09T05:39:56.806Z,4.02
2023-02-09T05:40:56.930Z,3.52
2023-02-09T05:41:57.037Z,3.93
2023-02-09T05:42:57.146Z,4.54
2023-02-09T05:43:57.265Z,3.16
2023-02-09T05:44:57.364Z,2.90
2023-02-09T05:45:57.515Z,2.82
2023-02-09T05:46:57.627Z,3.13
2023-02-09T05:47:57.690Z,2.95
2023-02-09T05:48:57.820Z,4.26
2023-02-09T05:49:57.914Z,3.74
2023-02-09T05:50:58.027Z,3.99
2023-02-09T05:51:58.140Z,3.93
2023-02-09T05:52:58.236Z,3.80
2023-02-09T05:53:58.350Z,4.00
2023-02-09T05:54:58.448Z,4.00
2023-02-09T05:55:58.619Z,3.47
2023-02-09T05:56:58.662Z,3.38
2023-02-09T05:57:58.758Z,3.50
2023-02-09T05:58:58.869Z,3.90
2023-02-09T05:59:58.974Z,4.01
2023-02-09T06:00:59.108Z,3.25
2023-02-09T06:01:59.208Z,4.31
2023-02-09T06:02:59.335Z,3.25
2023-02-09T06:03:59.418Z,3.45
2023-02-09T06:04:59.527Z,4.27
2023-02-09T06:05:59.637Z,3.54
2023-02-09T06:06:59.758Z,3.54
2023-02-09T06:07:59.863Z,3.43
2023-02-09T06:08:59.978Z,3.65
2023-02-09T06:10:00.088Z,3.71
2023-02-09T06:11:00.191Z,3.59
2023-02-09T06:12:00.306Z,3.83
2023-02-09T06:13:00.410Z,3.87
2023-02-09T06:14:00.536Z,3.83
2023-02-09T06:15:00.662Z,3.83
2023-02-09T06:16:00.781Z,3.88
2023-02-09T06:17:00.866Z,3.55
2023-02-09T06:18:00.983Z,3.18
2023-02-09T06:19:01.079Z,3.68
2023-02-09T06:20:01.194Z,3.50
2023-02-09T06:21:01.320Z,4.27
2023-02-09T06:22:01.418Z,4.63
2023-02-09T06:23:01.561Z,4.16
2023-02-09T06:24:01.644Z,4.47
2023-02-09T06:25:01.757Z,4.06
2023-02-09T06:26:01.910Z,3.78
2023-02-09T06:27:01.983Z,4.04
2023-02-09T06:28:02.143Z,3.81
2023-02-09T06:29:02.206Z,3.56
2023-02-09T06:30:02.322Z,4.15
2023-02-09T06:31:02.556Z,4.01
2023-02-09T06:32:02.683Z,4.87
2023-02-09T06:33:02.664Z,4.34
2023-02-09T06:34:02.771Z,4.75
2023-02-09T06:35:02.894Z,5.64
2023-02-09T06:36:03.024Z,6.29
2023-02-09T06:37:03.163Z,15.06
2023-02-09T06:38:03.201Z,26.71
2023-02-09T06:39:03.299Z,42.24
2023-02-09T06:40:03.381Z,57.94
2023-02-09T06:41:03.464Z,75.77
2023-02-09T06:42:03.551Z,93.55
2023-02-09T06:43:03.625Z,103.61
2023-02-09T06:44:03.702Z,120.60
2023-02-09T06:45:03.753Z,142.63
2023-02-09T06:46:03.874Z,159.12
2023-02-09T06:47:03.884Z,177.65
2023-02-09T06:48:04.008Z,200.01
2023-02-09T06:49:03.977Z,219.48
2023-02-09T06:50:04.028Z,229.51
2023-02-09T06:51:04.088Z,255.88
2023-02-09T06:52:04.117Z,285.20
2023-02-09T06:53:04.174Z,296.58
2023-02-09T06:54:04.202Z,308.23
2023-02-09T06:55:04.266Z,341.70
2023-02-09T06:56:04.296Z,367.02
2023-02-09T06:57:04.345Z,404.43
2023-02-09T06:58:04.424Z,427.05
2023-02-09T06:59:04.417Z,425.51
2023-02-09T07:00:04.458Z,424.96
2023-02-09T07:01:04.494Z,470.70
2023-02-09T07:02:04.577Z,477.88
2023-02-09T07:03:04.596Z,497.07
2023-02-09T07:04:04.605Z,507.19
2023-02-09T07:05:04.664Z,529.04
2023-02-09T07:06:04.662Z,555.33
2023-02-09T07:07:04.752Z,556.43
2023-02-09T07:08:04.742Z,562.02
2023-02-09T07:09:04.756Z,574.56
2023-02-09T07:10:04.814Z,612.21
2023-02-09T07:11:04.839Z,637.98
2023-02-09T07:12:04.862Z,633.19
2023-02-09T07:13:04.918Z,659.43
2023-02-09T07:14:04.928Z,636.85
2023-02-09T07:15:04.958Z,624.54
2023-02-09T07:16:05.094Z,674.63
2023-02-09T07:17:05.028Z,676.82
2023-02-09T07:18:05.068Z,675.86
2023-02-09T07:19:05.083Z,698.88
2023-02-09T07:20:05.131Z,670.30
2023-02-09T07:21:05.179Z,711.61
2023-02-09T07:22:05.157Z,733.28
2023-02-09T07:23:05.196Z,719.97
2023-02-09T07:24:05.198Z,734.36
2023-02-09T07:25:05.224Z,743.76
2023-02-09T07:26:05.246Z,727.02
2023-02-09T07:27:05.276Z,726.13
2023-02-09T07:28:05.315Z,736.89
2023-02-09T07:29:05.312Z,743.30
2023-02-09T07:30:05.314Z,725.60
2023-02-09T07:31:05.457Z,707.34
2023-02-09T07:32:05.436Z,664.19
2023-02-09T07:33:05.393Z,701.26
2023-02-09T07:34:05.395Z,676.87
2023-02-09T07:35:05.429Z,717.84
2023-02-09T07:36:05.451Z,760.02
2023-02-09T07:37:05.440Z,654.53
2023-02-09T07:38:05.455Z,674.55
2023-02-09T07:39:05.456Z,713.55
2023-02-09T07:40:05.511Z,674.46
2023-02-09T07:41:05.487Z,745.71
2023-02-09T07:42:05.506Z,700.75
2023-02-09T07:43:05.504Z,650.45
2023-02-09T07:44:05.532Z,648.62
2023-02-09T07:45:05.539Z,633.25
2023-02-09T07:46:05.549Z,698.52
2023-02-09T07:47:05.546Z,703.68
2023-02-09T07:48:05.584Z,648.26
2023-02-09T07:49:05.574Z,611.58
2023-02-09T07:50:05.576Z,489.97
2023-02-09T07:51:05.587Z,470.51
2023-02-09T07:52:05.599Z,543.58
2023-02-09T07:53:05.585Z,579.33
2023-02-09T07:54:07.403Z,564.22
2023-02-09T07:55:05.625Z,491.15
2023-02-09T07:56:05.617Z,354.19
2023-02-09T07:57:05.720Z,405.30
2023-02-09T07:58:05.632Z,424.75
2023-02-09T07:59:05.641Z,467.30
2023-02-09T08:00:05.682Z,454.13
2023-02-09T08:01:05.676Z,442.83
2023-02-09T08:02:05.788Z,332.77
2023-02-09T08:03:05.689Z,351.20
2023-02-09T08:04:05.842Z,345.49
2023-02-09T08:05:06.272Z,372.00
2023-02-09T08:06:05.694Z,385.44
2023-02-09T08:07:05.688Z,366.67
2023-02-09T08:08:05.696Z,354.81
2023-02-09T08:09:05.691Z,354.39
2023-02-09T08:10:05.699Z,356.50
2023-02-09T08:11:05.702Z,410.97
2023-02-09T08:12:05.741Z,449.07
2023-02-09T08:13:05.713Z,438.40
2023-02-09T08:14:05.741Z,369.98
2023-02-09T08:15:05.740Z,329.36
2023-02-09T08:16:05.785Z,331.87
2023-02-09T08:17:05.741Z,384.23
2023-02-09T08:18:05.753Z,383.08
2023-02-09T08:19:05.797Z,375.77
2023-02-09T08:20:05.747Z,316.30
2023-02-09T08:21:05.749Z,302.63
2023-02-09T08:22:05.746Z,315.41
2023-02-09T08:23:05.802Z,478.84
2023-02-09T08:24:05.759Z,565.70
2023-02-09T08:25:05.926Z,649.24
2023-02-09T08:26:06.451Z,576.00
2023-02-09T08:27:05.766Z,510.83
2023-02-09T08:28:05.798Z,491.83
2023-02-09T08:29:05.769Z,572.32
2023-02-09T08:30:05.782Z,581.13
2023-02-09T08:31:05.814Z,539.33
2023-02-09T08:32:05.793Z,426.41
2023-02-09T08:33:05.772Z,392.89
2023-02-09T08:34:05.776Z,382.15
2023-02-09T08:35:05.834Z,427.25
2023-02-09T08:36:05.764Z,429.34
2023-02-09T08:37:05.763Z,451.16
2023-02-09T08:38:05.781Z,390.21
2023-02-09T08:39:05.780Z,370.47
2023-02-09T08:40:05.776Z,401.00
2023-02-09T08:41:05.780Z,433.28
2023-02-09T08:42:05.776Z,447.99
2023-02-09T08:43:05.766Z,407.66
2023-02-09T08:44:05.772Z,349.31
2023-02-09T08:45:05.764Z,319.83
2023-02-09T08:46:05.869Z,326.00
2023-02-09T08:47:05.804Z,324.20
2023-02-09T08:48:05.787Z,322.43
2023-02-09T08:49:05.751Z,292.65
2023-02-09T08:50:05.777Z,249.50
2023-02-09T08:51:05.769Z,243.79
2023-02-09T08:52:05.786Z,253.38
2023-02-09T08:53:05.745Z,264.36
2023-02-09T08:54:05.805Z,242.74
2023-02-09T08:55:05.801Z,217.95
2023-02-09T08:56:06.072Z,193.06
2023-02-09T08:57:06.577Z,201.71
2023-02-09T08:59:25.076Z,217.59
2023-02-09T08:59:25.679Z,217.59
2023-02-09T09:00:25.711Z,221.99
2023-02-09T09:01:25.766Z,221.83
2023-02-09T09:02:25.665Z,225.05
2023-02-09T09:03:25.741Z,218.21
2023-02-09T09:04:25.665Z,218.36
2023-02-09T09:05:25.657Z,167.01
2023-02-09T09:06:25.647Z,166.70
2023-02-09T09:07:25.640Z,173.89
2023-02-09T09:09:39.218Z,183.56
2023-02-09T09:11:25.775Z,141.90
2023-02-09T09:12:25.764Z,149.70
2023-02-09T09:13:25.769Z,153.85
2023-02-09T09:14:25.965Z,162.76
2023-02-09T09:15:25.767Z,163.89
2023-02-09T09:16:25.803Z,161.35
2023-02-09T09:17:25.775Z,156.60
2023-02-09T09:18:26.315Z,153.38
2023-02-09T09:19:25.733Z,152.62
2023-02-09T09:20:25.760Z,148.33
2023-02-09T09:21:25.722Z,148.56
2023-02-09T09:22:25.722Z,147.01
2023-02-09T09:23:25.721Z,146.23
2023-02-09T09:24:25.707Z,143.77
2023-02-09T09:25:25.693Z,144.78
2023-02-09T09:26:25.714Z,141.29
2023-02-09T09:27:27.052Z,139.64
2023-02-09T09:28:25.726Z,138.39
2023-02-09T09:29:25.625Z,135.94
2023-02-09T09:30:25.638Z,133.22
2023-02-09T09:31:25.756Z,133.90
2023-02-09T09:32:25.724Z,134.47
2023-02-09T09:33:25.591Z,129.51
2023-02-09T09:34:25.597Z,123.35
2023-02-09T09:35:25.567Z,123.14
2023-02-09T09:36:25.565Z,123.44
2023-02-09T09:37:25.529Z,115.90
2023-02-09T09:38:25.509Z,115.08
2023-02-09T09:39:25.494Z,116.80
2023-02-09T10:04:25.107Z,152.62
2023-02-09T10:22:24.641Z,216.95
2023-02-09T10:23:24.636Z,240.56
2023-02-09T10:24:24.606Z,211.13
2023-02-09T10:25:24.571Z,211.49
2023-02-09T10:26:24.542Z,224.33
2023-02-09T10:27:24.518Z,215.19
2023-02-09T10:28:24.530Z,236.36
2023-02-09T10:29:24.484Z,271.48
2023-02-09T10:30:24.442Z,229.72
2023-02-09T10:31:24.583Z,227.89
2023-02-09T10:32:24.413Z,221.84
2023-02-09T10:33:24.410Z,221.23
2023-02-09T10:34:24.346Z,250.00
2023-02-09T10:35:24.320Z,271.54
2023-02-09T10:36:24.294Z,247.11
2023-02-09T10:37:24.266Z,189.75
2023-02-09T10:38:24.260Z,206.08
2023-02-09T10:39:24.215Z,212.97
2023-02-09T10:40:24.188Z,248.37
2023-02-09T10:41:24.172Z,238.70
2023-02-09T10:42:24.142Z,211.67
2023-02-09T10:43:24.118Z,209.00
2023-02-09T10:44:24.124Z,205.67
2023-02-09T10:45:24.060Z,196.23
2023-02-09T10:46:24.100Z,207.87
2023-02-09T10:47:23.996Z,198.62
2023-02-09T10:48:23.968Z,190.92
2023-02-09T10:49:23.935Z,158.42
2023-02-09T10:50:23.928Z,135.55
2023-02-09T14:37:16.876Z,13.96
2023-02-09T14:38:16.825Z,15.35
2023-02-09T14:39:16.799Z,14.65
2023-02-09T14:40:16.801Z,14.17
2023-02-09T14:41:16.770Z,12.89
2023-02-09T14:42:16.750Z,13.38
2023-02-09T14:43:16.718Z,15.08
2023-02-09T14:44:16.713Z,14.96
2023-02-09T14:45:16.676Z,13.84
2023-02-09T14:46:16.718Z,13.01
2023-02-09T14:47:16.672Z,13.47
2023-02-09T14:48:16.620Z,13.47
2023-02-09T14:49:16.614Z,15.29
2023-02-09T14:50:16.590Z,13.80
2023-02-09T14:51:16.543Z,13.53
2023-02-09T14:52:16.526Z,13.49
2023-02-09T14:53:16.513Z,13.75
2023-02-09T14:54:16.505Z,14.58
2023-02-09T14:55:16.493Z,15.24
2023-02-09T14:56:16.443Z,14.86
2023-02-09T14:57:16.435Z,13.81
2023-02-09T14:58:16.395Z,13.75
2023-02-09T14:59:16.452Z,13.68
2023-02-09T15:00:16.362Z,15.34
2023-02-09T15:01:16.376Z,14.68
2023-02-09T15:02:16.330Z,13.23
2023-02-09T15:03:16.307Z,12.66
2023-02-09T15:04:16.279Z,13.48
2023-02-09T15:05:16.267Z,14.13
2023-02-09T15:06:16.240Z,14.66
2023-02-09T15:07:16.240Z,13.66
2023-02-09T15:08:16.205Z,12.77
2023-02-09T15:09:16.176Z,12.82
2023-02-09T15:10:16.167Z,13.38
2023-02-09T15:11:16.135Z,14.53
2023-02-09T15:12:16.107Z,13.11
2023-02-09T15:13:16.088Z,11.81
2023-02-09T15:14:16.064Z,12.63
2023-02-09T15:15:16.048Z,12.65
2023-02-09T15:16:16.078Z,12.77
2023-02-09T15:17:15.988Z,13.37
2023-02-09T15:18:15.980Z,13.13
2023-02-09T15:19:15.943Z,12.92
2023-02-09T15:20:15.917Z,13.46
2023-02-09T15:21:15.889Z,13.58
2023-02-09T15:22:15.877Z,14.20
2023-02-09T15:23:15.843Z,14.43
2023-02-09T15:24:15.814Z,13.38
2023-02-09T15:25:15.790Z,13.37
2023-02-09T15:26:15.777Z,13.35
2023-02-09T15:27:15.760Z,13.39
2023-02-09T15:28:15.760Z,14.01
2023-02-09T15:29:15.825Z,14.21
2023-02-09T15:30:15.702Z,12.07
2023-02-09T15:31:16.371Z,12.24
2023-02-09T15:32:15.660Z,12.98
2023-02-09T15:33:15.627Z,12.76
2023-02-09T15:34:15.701Z,13.86
2023-02-09T15:39:15.500Z,12.87
2023-02-09T15:48:15.341Z,11.92
2023-02-09T15:49:15.304Z,12.40
2023-02-09T15:50:15.288Z,12.61
2023-02-09T15:51:15.298Z,13.46
2023-02-09T15:52:15.273Z,12.26
2023-02-09T15:53:15.327Z,11.28
2023-02-09T15:54:15.244Z,11.71
2023-02-09T15:55:15.215Z,12.21
2023-02-09T15:56:15.186Z,12.84
2023-02-09T15:57:15.175Z,11.72
2023-02-09T15:58:15.153Z,11.00
2023-02-09T15:59:15.153Z,11.04
2023-02-09T16:00:15.121Z,11.18
2023-02-09T16:01:15.174Z,11.39
2023-02-09T16:02:15.099Z,12.33
2023-02-09T16:03:15.162Z,11.75
2023-02-09T16:04:15.300Z,11.25
2023-02-09T16:05:15.052Z,11.48
2023-02-09T16:06:15.039Z,12.20
2023-02-09T16:07:15.019Z,12.45
2023-02-09T16:08:14.998Z,12.14
2023-02-09T16:09:15.000Z,11.37
2023-02-09T16:10:14.977Z,11.48
2023-02-09T16:11:14.968Z,12.16
2023-02-09T16:12:14.940Z,12.07
2023-02-09T16:13:14.939Z,12.61
2023-02-09T16:14:14.923Z,10.78
2023-02-09T16:15:14.910Z,11.33
2023-02-09T16:16:17.476Z,11.80
2023-02-09T16:17:14.874Z,11.98
2023-02-09T16:18:14.847Z,12.58
2023-02-09T16:19:14.838Z,12.80
2023-02-09T16:20:14.826Z,13.10
2023-02-09T16:21:14.811Z,13.19
2023-02-09T16:22:14.784Z,13.52
2023-02-09T16:23:20.599Z,13.56
2023-02-09T16:24:15.766Z,13.57
2023-02-09T16:25:14.743Z,13.07
2023-02-09T16:26:14.742Z,13.42
2023-02-09T16:27:14.719Z,13.43
2023-02-09T16:28:14.762Z,13.05
2023-02-09T16:29:14.686Z,13.46
2023-02-09T16:30:14.687Z,13.39
2023-02-09T16:31:14.682Z,13.50
2023-02-09T16:32:14.660Z,13.42
2023-02-09T16:33:14.620Z,13.21
2023-02-09T16:34:14.604Z,13.43
2023-02-09T16:35:17.247Z,13.44
2023-02-09T16:36:14.587Z,13.47
2023-02-09T16:37:14.564Z,13.50
2023-02-09T16:38:14.543Z,13.49
2023-02-09T16:39:14.538Z,13.52
2023-02-09T16:40:14.532Z,13.45
2023-02-09T16:41:14.503Z,13.61
2023-02-09T16:42:14.497Z,13.41
2023-02-09T16:43:14.463Z,13.47
2023-02-09T16:44:14.447Z,13.50
2023-02-09T16:45:14.426Z,13.61
2023-02-09T16:46:14.419Z,13.52
2023-02-09T16:47:14.397Z,13.93
2023-02-09T16:48:14.392Z,13.24
2023-02-09T16:49:14.364Z,13.76
2023-02-09T16:50:14.380Z,13.14
2023-02-09T16:51:14.333Z,13.22
2023-02-09T16:52:14.321Z,13.89
2023-02-09T16:53:14.296Z,14.09
2023-02-09T16:54:14.316Z,13.86
2023-02-09T16:55:14.262Z,13.88
2023-02-09T16:56:14.248Z,14.13
2023-02-09T16:57:14.237Z,14.18
2023-02-09T16:58:14.245Z,14.52
2023-02-09T16:59:14.231Z,14.39
2023-02-09T17:00:14.199Z,14.49
2023-02-09T17:01:14.339Z,14.13
2023-02-09T17:02:14.278Z,14.22
2023-02-09T17:03:14.137Z,14.01
2023-02-09T17:04:14.136Z,14.12
2023-02-09T17:05:14.104Z,14.08
2023-02-09T17:06:14.105Z,13.77
2023-02-09T17:07:14.109Z,13.57
2023-02-09T17:08:14.076Z,14.10
2023-02-09T17:09:14.052Z,13.73
2023-02-09T17:10:14.977Z,13.55
2023-02-09T17:11:14.009Z,13.75
2023-02-09T17:12:14.001Z,13.53
2023-02-09T17:13:13.993Z,13.22
2023-02-09T17:14:13.975Z,13.13
2023-02-09T17:15:28.417Z,13.39
2023-02-09T17:16:15.004Z,13.40
2023-02-09T17:49:13.971Z,13.44
2023-02-09T22:36:08.859Z,7.24
2023-02-09T22:37:08.852Z,7.09
2023-02-09T22:38:08.833Z,6.45
2023-02-09T22:39:08.838Z,6.49
2023-02-09T22:40:08.794Z,6.64
2023-02-09T22:41:08.782Z,6.75
2023-02-09T22:42:08.757Z,6.92
2023-02-09T22:43:08.761Z,6.62
2023-02-09T22:44:08.740Z,6.22
2023-02-09T22:45:08.735Z,6.16
2023-02-09T22:46:08.714Z,6.35
2023-02-09T22:47:08.676Z,6.51
2023-02-09T22:48:08.666Z,6.76
2023-02-09T22:49:08.648Z,6.49
2023-02-09T22:50:08.641Z,6.21
2023-02-09T22:51:08.616Z,6.41
2023-02-09T22:52:08.602Z,6.34
2023-02-09T22:53:08.577Z,6.73
2023-02-09T22:54:08.585Z,6.55
2023-02-09T22:55:08.560Z,6.29
2023-02-09T22:56:08.534Z,6.37
2023-02-09T22:57:08.528Z,6.54
2023-02-09T22:58:08.517Z,6.56
2023-02-09T22:59:08.484Z,6.52
2023-02-09T23:00:08.462Z,6.55
2023-02-09T23:01:08.506Z,6.38
2023-02-09T23:02:08.817Z,6.28
2023-02-09T23:03:08.447Z,6.46
2023-02-09T23:04:08.467Z,6.41
2023-02-09T23:05:08.428Z,6.60
2023-02-09T23:06:08.408Z,6.17
2023-02-09T23:07:08.407Z,5.96
2023-02-09T23:08:08.448Z,5.94
2023-02-09T23:09:08.369Z,6.11
2023-02-09T23:10:08.349Z,6.38
2023-02-09T23:11:08.391Z,6.60
2023-02-09T23:12:08.336Z,5.54
2023-02-09T23:13:08.324Z,5.81
2023-02-09T23:14:10.449Z,5.75
2023-02-09T23:15:08.397Z,6.01
2023-02-09T23:16:08.406Z,6.21
2023-02-09T23:17:08.383Z,6.19
2023-02-09T23:18:08.359Z,5.50
2023-02-09T23:19:08.392Z,5.89
2023-02-09T23:20:08.346Z,5.78
2023-02-09T23:21:08.337Z,6.06
2023-02-09T23:22:08.339Z,6.28
2023-02-09T23:23:08.328Z,5.72
2023-02-09T23:24:08.367Z,5.54
2023-02-09T23:25:08.289Z,5.55
2023-02-09T23:26:08.268Z,5.87
2023-02-09T23:27:08.252Z,5.98
2023-02-09T23:28:08.291Z,6.23
2023-02-09T23:29:08.249Z,5.79
2023-02-09T23:30:08.205Z,6.08
2023-02-09T23:31:08.234Z,5.97
2023-02-09T23:32:08.172Z,6.34
2023-02-09T23:33:08.160Z,6.49
2023-02-09T23:34:08.155Z,6.11
2023-02-09T23:35:08.124Z,6.13
2023-02-09T23:36:08.113Z,6.14
2023-02-09T23:37:18.154Z,6.29
2023-02-09T23:39:08.073Z,6.35
2023-02-09T23:40:08.044Z,6.29
2023-02-09T23:41:08.036Z,6.23
2023-02-09T23:42:08.013Z,6.13
2023-02-09T23:43:08.013Z,6.44
2023-02-09T23:44:08.001Z,6.46
2023-02-09T23:45:07.971Z,6.25
2023-02-09T23:46:07.968Z,5.93
2023-02-09T23:47:07.947Z,6.04
2023-02-09T23:48:07.917Z,6.31
2023-02-09T23:49:07.919Z,6.44
2023-02-09T23:50:07.896Z,6.58
2023-02-09T23:51:07.876Z,5.77
2023-02-09T23:52:07.858Z,5.72
2023-02-09T23:53:07.866Z,6.03
2023-02-09T23:54:07.842Z,5.96
2023-02-09T23:55:07.811Z,6.16
2023-02-09T23:56:07.783Z,6.17
2023-02-09T23:57:07.788Z,5.86
2023-02-09T23:58:07.751Z,5.67
2023-02-09T23:59:07.737Z,6.14
